sensor_id;sensor_type;location;lat;lon;timestamp;P1;durP1;ratioP1;P2;durP2;ratioP2
9968;SDS011;5025;48.890;9.278;2023-07-02T00:01:44;3.43;;;3.20;;
9968;SDS011;5025;48.890;9.278;2023-07-02T00:04:09;3.40;;;3.20;;
9968;SDS011;5025;48.890;9.278;2023-07-02T00:06:38;3.37;;;3.17;;
9968;SDS011;5025;48.890;9.278;2023-07-02T00:09:08;3.40;;;3.20;;
9968;SDS011;5025;48.890;9.278;2023-07-02T00:11:36;3.37;;;3.17;;
9968;SDS011;5025;48.890;9.278;2023-07-02T00:14:02;3.40;;;3.20;;
9968;SDS011;5025;48.890;9.278;2023-07-02T00:16:27;3.30;;;3.10;;
9968;SDS011;5025;48.890;9.278;2023-07-02T00:18:53;3.50;;;3.30;;
9968;SDS011;5025;48.890;9.278;2023-07-02T00:21:18;3.30;;;3.10;;
9968;SDS011;5025;48.890;9.278;2023-07-02T00:23:45;3.40;;;3.20;;
9968;SDS011;5025;48.890;9.278;2023-07-02T00:26:10;3.40;;;3.20;;
9968;SDS011;5025;48.890;9.278;2023-07-02T00:28:35;3.37;;;3.17;;
9968;SDS011;5025;48.890;9.278;2023-07-02T00:31:01;3.40;;;3.20;;
9968;SDS011;5025;48.890;9.278;2023-07-02T00:33:27;3.33;;;3.13;;
9968;SDS011;5025;48.890;9.278;2023-07-02T00:35:53;3.70;;;3.40;;
9968;SDS011;5025;48.890;9.278;2023-07-02T00:38:19;3.13;;;2.93;;
9968;SDS011;5025;48.890;9.278;2023-07-02T00:40:44;3.20;;;3.00;;
9968;SDS011;5025;48.890;9.278;2023-07-02T00:43:09;3.40;;;3.20;;
9968;SDS011;5025;48.890;9.278;2023-07-02T00:45:38;2.60;;;2.50;;
9968;SDS011;5025;48.890;9.278;2023-07-02T00:48:06;3.10;;;2.90;;
9968;SDS011;5025;48.890;9.278;2023-07-02T00:50:31;3.40;;;3.20;;
9968;SDS011;5025;48.890;9.278;2023-07-02T00:52:57;3.30;;;3.10;;
9968;SDS011;5025;48.890;9.278;2023-07-02T00:55:22;2.80;;;2.70;;
9968;SDS011;5025;48.890;9.278;2023-07-02T00:57:48;3.00;;;2.83;;
9968;SDS011;5025;48.890;9.278;2023-07-02T01:00:14;3.20;;;3.00;;
9968;SDS011;5025;48.890;9.278;2023-07-02T01:02:40;3.07;;;2.80;;
9968;SDS011;5025;48.890;9.278;2023-07-02T01:05:13;2.97;;;2.77;;
9968;SDS011;5025;48.890;9.278;2023-07-02T01:07:39;3.03;;;2.90;;
9968;SDS011;5025;48.890;9.278;2023-07-02T01:10:04;2.83;;;2.73;;
9968;SDS011;5025;48.890;9.278;2023-07-02T01:12:29;3.00;;;2.70;;
9968;SDS011;5025;48.890;9.278;2023-07-02T01:14:56;3.20;;;3.00;;
9968;SDS011;5025;48.890;9.278;2023-07-02T01:17:25;3.30;;;3.10;;
9968;SDS011;5025;48.890;9.278;2023-07-02T01:19:53;3.10;;;2.90;;
9968;SDS011;5025;48.890;9.278;2023-07-02T01:22:24;3.17;;;2.97;;
9968;SDS011;5025;48.890;9.278;2023-07-02T01:24:51;2.90;;;2.80;;
9968;SDS011;5025;48.890;9.278;2023-07-02T01:27:17;2.90;;;2.77;;
9968;SDS011;5025;48.890;9.278;2023-07-02T01:29:43;3.13;;;2.93;;
9968;SDS011;5025;48.890;9.278;2023-07-02T01:32:11;2.90;;;2.70;;
9968;SDS011;5025;48.890;9.278;2023-07-02T01:34:37;3.17;;;2.97;;
9968;SDS011;5025;48.890;9.278;2023-07-02T01:37:03;3.00;;;2.80;;
9968;SDS011;5025;48.890;9.278;2023-07-02T01:39:29;3.37;;;3.03;;
9968;SDS011;5025;48.890;9.278;2023-07-02T01:41:55;3.27;;;3.07;;
9968;SDS011;5025;48.890;9.278;2023-07-02T01:44:32;3.90;;;3.23;;
9968;SDS011;5025;48.890;9.278;2023-07-02T01:46:57;3.40;;;3.00;;
9968;SDS011;5025;48.890;9.278;2023-07-02T01:49:23;3.23;;;3.00;;
9968;SDS011;5025;48.890;9.278;2023-07-02T01:51:49;2.80;;;2.70;;
9968;SDS011;5025;48.890;9.278;2023-07-02T01:54:15;3.07;;;2.87;;
9968;SDS011;5025;48.890;9.278;2023-07-02T01:56:41;3.10;;;2.80;;
9968;SDS011;5025;48.890;9.278;2023-07-02T01:59:06;3.17;;;2.97;;
9968;SDS011;5025;48.890;9.278;2023-07-02T02:01:31;3.00;;;2.80;;
9968;SDS011;5025;48.890;9.278;2023-07-02T02:03:57;3.50;;;3.03;;
9968;SDS011;5025;48.890;9.278;2023-07-02T02:06:23;3.00;;;2.80;;
9968;SDS011;5025;48.890;9.278;2023-07-02T02:08:48;2.87;;;2.67;;
9968;SDS011;5025;48.890;9.278;2023-07-02T02:11:13;3.20;;;3.00;;
9968;SDS011;5025;48.890;9.278;2023-07-02T02:13:39;2.87;;;2.67;;
9968;SDS011;5025;48.890;9.278;2023-07-02T02:16:04;2.97;;;2.77;;
9968;SDS011;5025;48.890;9.278;2023-07-02T02:18:29;3.27;;;3.07;;
9968;SDS011;5025;48.890;9.278;2023-07-02T02:20:55;2.70;;;2.60;;
9968;SDS011;5025;48.890;9.278;2023-07-02T02:23:20;2.60;;;2.50;;
9968;SDS011;5025;48.890;9.278;2023-07-02T02:25:45;3.47;;;3.10;;
9968;SDS011;5025;48.890;9.278;2023-07-02T02:28:10;3.27;;;2.77;;
9968;SDS011;5025;48.890;9.278;2023-07-02T02:30:36;2.97;;;2.80;;
9968;SDS011;5025;48.890;9.278;2023-07-02T02:33:01;3.07;;;2.87;;
9968;SDS011;5025;48.890;9.278;2023-07-02T02:35:26;3.03;;;2.93;;
9968;SDS011;5025;48.890;9.278;2023-07-02T02:37:51;3.53;;;3.23;;
9968;SDS011;5025;48.890;9.278;2023-07-02T02:40:17;3.10;;;2.90;;
9968;SDS011;5025;48.890;9.278;2023-07-02T02:42:42;3.80;;;2.90;;
9968;SDS011;5025;48.890;9.278;2023-07-02T02:45:08;3.00;;;2.80;;
9968;SDS011;5025;48.890;9.278;2023-07-02T02:47:33;2.87;;;2.67;;
9968;SDS011;5025;48.890;9.278;2023-07-02T02:49:59;2.40;;;2.30;;
9968;SDS011;5025;48.890;9.278;2023-07-02T02:52:24;2.63;;;2.53;;
9968;SDS011;5025;48.890;9.278;2023-07-02T02:54:50;2.87;;;2.67;;
9968;SDS011;5025;48.890;9.278;2023-07-02T02:57:17;3.33;;;3.07;;
9968;SDS011;5025;48.890;9.278;2023-07-02T02:59:43;4.00;;;2.90;;
9968;SDS011;5025;48.890;9.278;2023-07-02T03:02:08;3.53;;;3.23;;
9968;SDS011;5025;48.890;9.278;2023-07-02T03:04:34;3.13;;;2.93;;
9968;SDS011;5025;48.890;9.278;2023-07-02T03:06:59;2.67;;;2.47;;
9968;SDS011;5025;48.890;9.278;2023-07-02T03:09:24;3.27;;;2.87;;
9968;SDS011;5025;48.890;9.278;2023-07-02T03:11:50;3.07;;;2.87;;
9968;SDS011;5025;48.890;9.278;2023-07-02T03:14:15;4.70;;;3.07;;
9968;SDS011;5025;48.890;9.278;2023-07-02T03:16:41;3.07;;;2.87;;
9968;SDS011;5025;48.890;9.278;2023-07-02T03:19:07;4.87;;;3.10;;
9968;SDS011;5025;48.890;9.278;2023-07-02T03:21:32;4.50;;;3.10;;
9968;SDS011;5025;48.890;9.278;2023-07-02T03:23:57;3.90;;;3.40;;
9968;SDS011;5025;48.890;9.278;2023-07-02T03:26:23;3.70;;;3.40;;
9968;SDS011;5025;48.890;9.278;2023-07-02T03:28:49;3.67;;;3.37;;
9968;SDS011;5025;48.890;9.278;2023-07-02T03:31:14;3.87;;;3.37;;
9968;SDS011;5025;48.890;9.278;2023-07-02T03:33:39;3.57;;;3.27;;
9968;SDS011;5025;48.890;9.278;2023-07-02T03:36:05;3.97;;;3.57;;
9968;SDS011;5025;48.890;9.278;2023-07-02T03:38:30;3.93;;;3.53;;
9968;SDS011;5025;48.890;9.278;2023-07-02T03:40:55;5.33;;;4.33;;
9968;SDS011;5025;48.890;9.278;2023-07-02T03:43:21;4.57;;;4.03;;
9968;SDS011;5025;48.890;9.278;2023-07-02T03:45:46;4.97;;;4.53;;
9968;SDS011;5025;48.890;9.278;2023-07-02T03:48:11;4.90;;;4.20;;
9968;SDS011;5025;48.890;9.278;2023-07-02T03:50:36;5.30;;;4.23;;
9968;SDS011;5025;48.890;9.278;2023-07-02T03:53:02;4.60;;;3.97;;
9968;SDS011;5025;48.890;9.278;2023-07-02T03:55:27;6.77;;;4.57;;
9968;SDS011;5025;48.890;9.278;2023-07-02T03:57:52;5.60;;;4.53;;
9968;SDS011;5025;48.890;9.278;2023-07-02T04:00:18;5.00;;;4.50;;
9968;SDS011;5025;48.890;9.278;2023-07-02T04:02:43;5.03;;;4.40;;
9968;SDS011;5025;48.890;9.278;2023-07-02T04:05:11;9.27;;;4.93;;
9968;SDS011;5025;48.890;9.278;2023-07-02T04:07:36;6.00;;;4.60;;
9968;SDS011;5025;48.890;9.278;2023-07-02T04:10:01;5.70;;;4.50;;
9968;SDS011;5025;48.890;9.278;2023-07-02T04:12:27;5.97;;;4.80;;
9968;SDS011;5025;48.890;9.278;2023-07-02T04:14:52;5.37;;;4.77;;
9968;SDS011;5025;48.890;9.278;2023-07-02T04:17:18;6.40;;;5.20;;
9968;SDS011;5025;48.890;9.278;2023-07-02T04:19:43;7.63;;;6.00;;
9968;SDS011;5025;48.890;9.278;2023-07-02T04:22:09;6.77;;;5.83;;
9968;SDS011;5025;48.890;9.278;2023-07-02T04:24:34;9.17;;;6.13;;
9968;SDS011;5025;48.890;9.278;2023-07-02T04:26:59;7.03;;;5.83;;
9968;SDS011;5025;48.890;9.278;2023-07-02T04:29:24;7.97;;;5.97;;
9968;SDS011;5025;48.890;9.278;2023-07-02T04:31:50;6.73;;;5.70;;
9968;SDS011;5025;48.890;9.278;2023-07-02T04:34:15;7.40;;;5.80;;
9968;SDS011;5025;48.890;9.278;2023-07-02T04:36:40;8.50;;;5.90;;
9968;SDS011;5025;48.890;9.278;2023-07-02T04:39:06;5.87;;;5.33;;
9968;SDS011;5025;48.890;9.278;2023-07-02T04:41:32;6.07;;;5.40;;
9968;SDS011;5025;48.890;9.278;2023-07-02T04:43:58;6.13;;;5.40;;
9968;SDS011;5025;48.890;9.278;2023-07-02T04:46:23;5.80;;;5.20;;
9968;SDS011;5025;48.890;9.278;2023-07-02T04:48:48;6.07;;;5.30;;
9968;SDS011;5025;48.890;9.278;2023-07-02T04:51:14;6.20;;;4.90;;
9968;SDS011;5025;48.890;9.278;2023-07-02T04:53:39;6.53;;;5.20;;
9968;SDS011;5025;48.890;9.278;2023-07-02T04:56:04;5.90;;;5.30;;
9968;SDS011;5025;48.890;9.278;2023-07-02T04:58:30;6.30;;;5.27;;
9968;SDS011;5025;48.890;9.278;2023-07-02T05:00:55;6.70;;;5.07;;
9968;SDS011;5025;48.890;9.278;2023-07-02T05:03:20;5.60;;;4.93;;
9968;SDS011;5025;48.890;9.278;2023-07-02T05:05:45;7.87;;;5.00;;
9968;SDS011;5025;48.890;9.278;2023-07-02T05:08:11;5.37;;;4.60;;
9968;SDS011;5025;48.890;9.278;2023-07-02T05:10:36;6.33;;;4.70;;
9968;SDS011;5025;48.890;9.278;2023-07-02T05:13:01;5.73;;;4.67;;
9968;SDS011;5025;48.890;9.278;2023-07-02T05:15:26;6.90;;;4.77;;
9968;SDS011;5025;48.890;9.278;2023-07-02T05:17:52;7.67;;;4.30;;
9968;SDS011;5025;48.890;9.278;2023-07-02T05:20:17;6.47;;;4.13;;
9968;SDS011;5025;48.890;9.278;2023-07-02T05:22:42;5.70;;;4.17;;
9968;SDS011;5025;48.890;9.278;2023-07-02T05:25:08;4.67;;;4.27;;
9968;SDS011;5025;48.890;9.278;2023-07-02T05:27:34;5.17;;;3.77;;
9968;SDS011;5025;48.890;9.278;2023-07-02T05:29:59;6.80;;;4.10;;
9968;SDS011;5025;48.890;9.278;2023-07-02T05:32:24;5.27;;;3.80;;
9968;SDS011;5025;48.890;9.278;2023-07-02T05:34:50;4.30;;;3.90;;
9968;SDS011;5025;48.890;9.278;2023-07-02T05:37:15;4.93;;;3.83;;
9968;SDS011;5025;48.890;9.278;2023-07-02T05:39:40;6.63;;;3.70;;
9968;SDS011;5025;48.890;9.278;2023-07-02T05:42:06;5.10;;;3.97;;
9968;SDS011;5025;48.890;9.278;2023-07-02T05:44:31;6.37;;;4.27;;
9968;SDS011;5025;48.890;9.278;2023-07-02T05:46:56;5.40;;;4.60;;
9968;SDS011;5025;48.890;9.278;2023-07-02T05:49:22;6.83;;;4.53;;
9968;SDS011;5025;48.890;9.278;2023-07-02T05:51:47;5.13;;;4.63;;
9968;SDS011;5025;48.890;9.278;2023-07-02T05:54:12;5.93;;;4.43;;
9968;SDS011;5025;48.890;9.278;2023-07-02T05:56:38;7.30;;;5.07;;
9968;SDS011;5025;48.890;9.278;2023-07-02T05:59:03;7.83;;;5.30;;
9968;SDS011;5025;48.890;9.278;2023-07-02T06:01:28;7.30;;;5.60;;
9968;SDS011;5025;48.890;9.278;2023-07-02T06:03:53;8.33;;;5.90;;
9968;SDS011;5025;48.890;9.278;2023-07-02T06:06:20;8.17;;;5.53;;
9968;SDS011;5025;48.890;9.278;2023-07-02T06:08:47;7.20;;;5.20;;
9968;SDS011;5025;48.890;9.278;2023-07-02T06:11:12;8.23;;;6.03;;
9968;SDS011;5025;48.890;9.278;2023-07-02T06:13:38;10.20;;;6.27;;
9968;SDS011;5025;48.890;9.278;2023-07-02T06:16:03;9.17;;;6.27;;
9968;SDS011;5025;48.890;9.278;2023-07-02T06:18:28;8.17;;;6.50;;
9968;SDS011;5025;48.890;9.278;2023-07-02T06:20:54;7.67;;;6.13;;
9968;SDS011;5025;48.890;9.278;2023-07-02T06:23:19;7.23;;;5.87;;
9968;SDS011;5025;48.890;9.278;2023-07-02T06:25:44;12.73;;;6.30;;
9968;SDS011;5025;48.890;9.278;2023-07-02T06:28:10;7.77;;;6.20;;
9968;SDS011;5025;48.890;9.278;2023-07-02T06:30:35;9.47;;;6.27;;
9968;SDS011;5025;48.890;9.278;2023-07-02T06:33:00;9.67;;;6.87;;
9968;SDS011;5025;48.890;9.278;2023-07-02T06:35:25;8.33;;;6.40;;
9968;SDS011;5025;48.890;9.278;2023-07-02T06:37:51;9.00;;;6.47;;
9968;SDS011;5025;48.890;9.278;2023-07-02T06:40:16;8.00;;;6.83;;
9968;SDS011;5025;48.890;9.278;2023-07-02T06:42:41;9.37;;;7.03;;
9968;SDS011;5025;48.890;9.278;2023-07-02T06:45:07;10.50;;;6.97;;
9968;SDS011;5025;48.890;9.278;2023-07-02T06:47:33;8.90;;;7.37;;
9968;SDS011;5025;48.890;9.278;2023-07-02T06:49:58;11.30;;;7.27;;
9968;SDS011;5025;48.890;9.278;2023-07-02T06:52:24;10.03;;;6.93;;
9968;SDS011;5025;48.890;9.278;2023-07-02T06:54:49;9.20;;;6.87;;
9968;SDS011;5025;48.890;9.278;2023-07-02T06:57:14;8.83;;;6.70;;
9968;SDS011;5025;48.890;9.278;2023-07-02T06:59:40;8.87;;;7.10;;
9968;SDS011;5025;48.890;9.278;2023-07-02T07:02:05;8.60;;;6.50;;
9968;SDS011;5025;48.890;9.278;2023-07-02T07:04:31;10.83;;;7.30;;
9968;SDS011;5025;48.890;9.278;2023-07-02T07:06:56;9.07;;;7.10;;
9968;SDS011;5025;48.890;9.278;2023-07-02T07:09:21;8.40;;;6.63;;
9968;SDS011;5025;48.890;9.278;2023-07-02T07:11:47;9.13;;;6.93;;
9968;SDS011;5025;48.890;9.278;2023-07-02T07:14:12;12.20;;;7.47;;
9968;SDS011;5025;48.890;9.278;2023-07-02T07:16:37;9.07;;;6.77;;
9968;SDS011;5025;48.890;9.278;2023-07-02T07:19:03;8.37;;;7.20;;
9968;SDS011;5025;48.890;9.278;2023-07-02T07:21:28;10.83;;;7.90;;
9968;SDS011;5025;48.890;9.278;2023-07-02T07:23:53;11.27;;;7.73;;
9968;SDS011;5025;48.890;9.278;2023-07-02T07:26:19;9.70;;;7.10;;
9968;SDS011;5025;48.890;9.278;2023-07-02T07:28:44;9.93;;;7.77;;
9968;SDS011;5025;48.890;9.278;2023-07-02T07:31:09;10.83;;;7.33;;
9968;SDS011;5025;48.890;9.278;2023-07-02T07:33:34;10.33;;;8.63;;
9968;SDS011;5025;48.890;9.278;2023-07-02T07:36:00;9.90;;;7.93;;
9968;SDS011;5025;48.890;9.278;2023-07-02T07:38:25;9.70;;;8.37;;
9968;SDS011;5025;48.890;9.278;2023-07-02T07:40:51;12.50;;;9.07;;
9968;SDS011;5025;48.890;9.278;2023-07-02T07:43:16;13.03;;;9.23;;
9968;SDS011;5025;48.890;9.278;2023-07-02T07:45:41;14.53;;;9.63;;
9968;SDS011;5025;48.890;9.278;2023-07-02T07:48:07;12.03;;;10.73;;
9968;SDS011;5025;48.890;9.278;2023-07-02T07:50:32;13.13;;;9.40;;
9968;SDS011;5025;48.890;9.278;2023-07-02T07:52:58;11.97;;;10.10;;
9968;SDS011;5025;48.890;9.278;2023-07-02T07:55:23;13.93;;;10.57;;
9968;SDS011;5025;48.890;9.278;2023-07-02T07:57:48;15.03;;;10.60;;
9968;SDS011;5025;48.890;9.278;2023-07-02T08:00:14;13.63;;;11.07;;
9968;SDS011;5025;48.890;9.278;2023-07-02T08:02:39;15.20;;;10.50;;
9968;SDS011;5025;48.890;9.278;2023-07-02T08:05:05;14.43;;;10.70;;
9968;SDS011;5025;48.890;9.278;2023-07-02T08:07:31;14.20;;;10.27;;
9968;SDS011;5025;48.890;9.278;2023-07-02T08:09:57;14.40;;;10.73;;
9968;SDS011;5025;48.890;9.278;2023-07-02T08:12:22;15.07;;;10.83;;
9968;SDS011;5025;48.890;9.278;2023-07-02T08:14:48;15.10;;;12.20;;
9968;SDS011;5025;48.890;9.278;2023-07-02T08:17:14;15.00;;;11.40;;
9968;SDS011;5025;48.890;9.278;2023-07-02T08:19:39;14.90;;;11.27;;
9968;SDS011;5025;48.890;9.278;2023-07-02T08:22:04;15.17;;;11.37;;
9968;SDS011;5025;48.890;9.278;2023-07-02T08:24:30;15.40;;;11.70;;
9968;SDS011;5025;48.890;9.278;2023-07-02T08:26:56;15.60;;;11.80;;
9968;SDS011;5025;48.890;9.278;2023-07-02T08:29:21;14.73;;;11.47;;
9968;SDS011;5025;48.890;9.278;2023-07-02T08:31:47;14.63;;;11.73;;
9968;SDS011;5025;48.890;9.278;2023-07-02T08:34:12;16.13;;;11.57;;
9968;SDS011;5025;48.890;9.278;2023-07-02T08:36:37;15.87;;;12.40;;
9968;SDS011;5025;48.890;9.278;2023-07-02T08:39:03;15.80;;;12.47;;
9968;SDS011;5025;48.890;9.278;2023-07-02T08:41:29;16.57;;;12.27;;
9968;SDS011;5025;48.890;9.278;2023-07-02T08:43:55;16.27;;;12.67;;
9968;SDS011;5025;48.890;9.278;2023-07-02T08:46:21;18.67;;;13.33;;
9968;SDS011;5025;48.890;9.278;2023-07-02T08:48:47;16.63;;;12.00;;
9968;SDS011;5025;48.890;9.278;2023-07-02T08:51:12;18.83;;;12.27;;
9968;SDS011;5025;48.890;9.278;2023-07-02T08:53:37;14.33;;;11.90;;
9968;SDS011;5025;48.890;9.278;2023-07-02T08:56:03;16.57;;;12.40;;
9968;SDS011;5025;48.890;9.278;2023-07-02T08:58:28;15.13;;;12.47;;
9968;SDS011;5025;48.890;9.278;2023-07-02T09:01:03;16.00;;;12.27;;
9968;SDS011;5025;48.890;9.278;2023-07-02T09:03:29;17.87;;;12.60;;
9968;SDS011;5025;48.890;9.278;2023-07-02T09:05:55;19.57;;;13.00;;
9968;SDS011;5025;48.890;9.278;2023-07-02T09:08:23;16.37;;;12.40;;
9968;SDS011;5025;48.890;9.278;2023-07-02T09:10:52;17.67;;;12.87;;
9968;SDS011;5025;48.890;9.278;2023-07-02T09:13:18;16.50;;;11.97;;
9968;SDS011;5025;48.890;9.278;2023-07-02T09:15:44;15.50;;;11.40;;
9968;SDS011;5025;48.890;9.278;2023-07-02T09:18:42;14.17;;;11.13;;
9968;SDS011;5025;48.890;9.278;2023-07-02T09:21:00;16.40;;;12.52;;
9968;SDS011;5025;48.890;9.278;2023-07-02T09:23:33;13.70;;;12.07;;
9968;SDS011;5025;48.890;9.278;2023-07-02T09:26:00;15.27;;;12.13;;
9968;SDS011;5025;48.890;9.278;2023-07-02T09:28:25;15.13;;;11.60;;
9968;SDS011;5025;48.890;9.278;2023-07-02T09:30:57;14.43;;;11.70;;
9968;SDS011;5025;48.890;9.278;2023-07-02T09:33:23;14.93;;;12.10;;
9968;SDS011;5025;48.890;9.278;2023-07-02T09:35:52;13.83;;;11.90;;
9968;SDS011;5025;48.890;9.278;2023-07-02T09:38:19;14.60;;;12.07;;
9968;SDS011;5025;48.890;9.278;2023-07-02T09:40:45;14.50;;;11.70;;
9968;SDS011;5025;48.890;9.278;2023-07-02T09:43:15;16.97;;;12.50;;
9968;SDS011;5025;48.890;9.278;2023-07-02T09:45:44;16.57;;;13.43;;
9968;SDS011;5025;48.890;9.278;2023-07-02T09:48:12;17.63;;;13.60;;
9968;SDS011;5025;48.890;9.278;2023-07-02T09:50:39;18.17;;;13.57;;
9968;SDS011;5025;48.890;9.278;2023-07-02T09:53:06;17.27;;;12.70;;
9968;SDS011;5025;48.890;9.278;2023-07-02T09:55:31;16.60;;;13.23;;
9968;SDS011;5025;48.890;9.278;2023-07-02T09:57:57;17.13;;;13.97;;
9968;SDS011;5025;48.890;9.278;2023-07-02T10:00:23;17.07;;;13.80;;
9968;SDS011;5025;48.890;9.278;2023-07-02T10:02:48;18.30;;;13.77;;
9968;SDS011;5025;48.890;9.278;2023-07-02T10:05:30;16.43;;;13.13;;
9968;SDS011;5025;48.890;9.278;2023-07-02T10:07:57;17.43;;;14.10;;
9968;SDS011;5025;48.890;9.278;2023-07-02T10:10:30;16.53;;;13.47;;
9968;SDS011;5025;48.890;9.278;2023-07-02T10:12:56;18.43;;;14.20;;
9968;SDS011;5025;48.890;9.278;2023-07-02T10:15:25;16.00;;;13.17;;
9968;SDS011;5025;48.890;9.278;2023-07-02T10:17:59;18.13;;;13.20;;
9968;SDS011;5025;48.890;9.278;2023-07-02T10:20:35;15.50;;;13.00;;
9968;SDS011;5025;48.890;9.278;2023-07-02T10:23:03;15.47;;;13.53;;
9968;SDS011;5025;48.890;9.278;2023-07-02T10:25:30;16.90;;;14.13;;
9968;SDS011;5025;48.890;9.278;2023-07-02T10:27:55;19.63;;;13.53;;
9968;SDS011;5025;48.890;9.278;2023-07-02T10:30:31;17.73;;;13.90;;
9968;SDS011;5025;48.890;9.278;2023-07-02T10:33:07;17.53;;;13.50;;
9968;SDS011;5025;48.890;9.278;2023-07-02T10:35:33;17.92;;;12.68;;
9968;SDS011;5025;48.890;9.278;2023-07-02T10:37:59;15.23;;;13.33;;
9968;SDS011;5025;48.890;9.278;2023-07-02T10:40:24;15.77;;;13.10;;
9968;SDS011;5025;48.890;9.278;2023-07-02T10:42:51;15.20;;;13.20;;
9968;SDS011;5025;48.890;9.278;2023-07-02T10:45:17;17.70;;;13.90;;
9968;SDS011;5025;48.890;9.278;2023-07-02T10:47:43;15.57;;;13.63;;
9968;SDS011;5025;48.890;9.278;2023-07-02T10:50:16;16.00;;;13.33;;
9968;SDS011;5025;48.890;9.278;2023-07-02T10:52:42;15.97;;;13.57;;
9968;SDS011;5025;48.890;9.278;2023-07-02T10:55:08;15.07;;;13.40;;
9968;SDS011;5025;48.890;9.278;2023-07-02T10:57:33;17.33;;;13.30;;
9968;SDS011;5025;48.890;9.278;2023-07-02T11:00:05;16.43;;;13.13;;
9968;SDS011;5025;48.890;9.278;2023-07-02T11:02:37;17.90;;;12.80;;
9968;SDS011;5025;48.890;9.278;2023-07-02T11:05:04;15.47;;;13.10;;
9968;SDS011;5025;48.890;9.278;2023-07-02T11:07:31;17.00;;;12.67;;
9968;SDS011;5025;48.890;9.278;2023-07-02T11:09:57;16.20;;;12.87;;
9968;SDS011;5025;48.890;9.278;2023-07-02T11:12:29;17.70;;;13.40;;
9968;SDS011;5025;48.890;9.278;2023-07-02T11:14:55;14.80;;;12.43;;
9968;SDS011;5025;48.890;9.278;2023-07-02T11:17:24;15.67;;;12.87;;
9968;SDS011;5025;48.890;9.278;2023-07-02T11:19:51;17.10;;;13.40;;
9968;SDS011;5025;48.890;9.278;2023-07-02T11:22:16;16.20;;;13.10;;
9968;SDS011;5025;48.890;9.278;2023-07-02T11:24:42;15.07;;;13.10;;
9968;SDS011;5025;48.890;9.278;2023-07-02T11:27:07;15.37;;;12.87;;
9968;SDS011;5025;48.890;9.278;2023-07-02T11:29:33;14.27;;;12.17;;
9968;SDS011;5025;48.890;9.278;2023-07-02T11:32:09;15.13;;;13.13;;
9968;SDS011;5025;48.890;9.278;2023-07-02T11:34:35;17.60;;;13.67;;
9968;SDS011;5025;48.890;9.278;2023-07-02T11:37:01;16.33;;;14.38;;
9968;SDS011;5025;48.890;9.278;2023-07-02T11:39:27;15.30;;;12.80;;
9968;SDS011;5025;48.890;9.278;2023-07-02T11:41:53;15.30;;;13.00;;
9968;SDS011;5025;48.890;9.278;2023-07-02T11:44:18;14.47;;;12.80;;
9968;SDS011;5025;48.890;9.278;2023-07-02T11:46:44;16.95;;;13.80;;
9968;SDS011;5025;48.890;9.278;2023-07-02T11:49:09;15.30;;;13.20;;
9968;SDS011;5025;48.890;9.278;2023-07-02T11:51:35;15.23;;;12.73;;
9968;SDS011;5025;48.890;9.278;2023-07-02T11:54:02;14.50;;;12.50;;
9968;SDS011;5025;48.890;9.278;2023-07-02T11:56:28;15.83;;;12.50;;
9968;SDS011;5025;48.890;9.278;2023-07-02T11:58:53;14.47;;;12.93;;
9968;SDS011;5025;48.890;9.278;2023-07-02T12:01:19;15.03;;;13.10;;
9968;SDS011;5025;48.890;9.278;2023-07-02T12:03:44;15.27;;;12.63;;
9968;SDS011;5025;48.890;9.278;2023-07-02T12:06:10;14.13;;;12.67;;
9968;SDS011;5025;48.890;9.278;2023-07-02T12:08:35;14.70;;;12.80;;
9968;SDS011;5025;48.890;9.278;2023-07-02T12:11:00;18.27;;;12.63;;
9968;SDS011;5025;48.890;9.278;2023-07-02T12:13:26;14.30;;;12.50;;
9968;SDS011;5025;48.890;9.278;2023-07-02T12:15:51;18.33;;;13.63;;
9968;SDS011;5025;48.890;9.278;2023-07-02T12:18:16;15.70;;;13.20;;
9968;SDS011;5025;48.890;9.278;2023-07-02T12:20:42;16.80;;;13.23;;
9968;SDS011;5025;48.890;9.278;2023-07-02T12:23:07;14.60;;;13.10;;
9968;SDS011;5025;48.890;9.278;2023-07-02T12:25:33;16.77;;;12.97;;
9968;SDS011;5025;48.890;9.278;2023-07-02T12:27:58;14.90;;;13.37;;
9968;SDS011;5025;48.890;9.278;2023-07-02T12:30:23;14.30;;;12.77;;
9968;SDS011;5025;48.890;9.278;2023-07-02T12:32:49;13.67;;;12.27;;
9968;SDS011;5025;48.890;9.278;2023-07-02T12:35:14;13.57;;;12.17;;
9968;SDS011;5025;48.890;9.278;2023-07-02T12:37:46;15.47;;;12.70;;
9968;SDS011;5025;48.890;9.278;2023-07-02T12:40:12;15.37;;;13.17;;
9968;SDS011;5025;48.890;9.278;2023-07-02T12:42:38;14.93;;;12.60;;
9968;SDS011;5025;48.890;9.278;2023-07-02T12:45:05;15.50;;;12.47;;
9968;SDS011;5025;48.890;9.278;2023-07-02T12:47:31;16.50;;;12.50;;
9968;SDS011;5025;48.890;9.278;2023-07-02T12:49:56;14.07;;;12.57;;
9968;SDS011;5025;48.890;9.278;2023-07-02T12:52:21;15.07;;;12.67;;
9968;SDS011;5025;48.890;9.278;2023-07-02T12:54:47;15.70;;;12.83;;
9968;SDS011;5025;48.890;9.278;2023-07-02T12:57:12;15.73;;;13.77;;
9968;SDS011;5025;48.890;9.278;2023-07-02T12:59:37;13.83;;;12.40;;
9968;SDS011;5025;48.890;9.278;2023-07-02T13:02:02;14.87;;;12.77;;
9968;SDS011;5025;48.890;9.278;2023-07-02T13:04:28;14.80;;;12.90;;
9968;SDS011;5025;48.890;9.278;2023-07-02T13:06:53;14.30;;;12.80;;
9968;SDS011;5025;48.890;9.278;2023-07-02T13:09:18;15.87;;;12.67;;
9968;SDS011;5025;48.890;9.278;2023-07-02T13:11:43;16.67;;;12.77;;
9968;SDS011;5025;48.890;9.278;2023-07-02T13:14:09;14.93;;;13.33;;
9968;SDS011;5025;48.890;9.278;2023-07-02T13:16:34;16.00;;;13.60;;
9968;SDS011;5025;48.890;9.278;2023-07-02T13:18:59;15.90;;;12.47;;
9968;SDS011;5025;48.890;9.278;2023-07-02T13:21:26;15.53;;;13.03;;
9968;SDS011;5025;48.890;9.278;2023-07-02T13:23:52;15.27;;;13.47;;
9968;SDS011;5025;48.890;9.278;2023-07-02T13:26:17;17.13;;;12.90;;
9968;SDS011;5025;48.890;9.278;2023-07-02T13:28:42;19.07;;;13.13;;
9968;SDS011;5025;48.890;9.278;2023-07-02T13:31:07;14.90;;;12.93;;
9968;SDS011;5025;48.890;9.278;2023-07-02T13:33:35;14.60;;;12.93;;
9968;SDS011;5025;48.890;9.278;2023-07-02T13:36:00;14.27;;;12.77;;
9968;SDS011;5025;48.890;9.278;2023-07-02T13:38:25;15.97;;;13.20;;
9968;SDS011;5025;48.890;9.278;2023-07-02T13:40:51;16.57;;;12.50;;
9968;SDS011;5025;48.890;9.278;2023-07-02T13:43:16;14.67;;;13.03;;
9968;SDS011;5025;48.890;9.278;2023-07-02T13:45:41;14.43;;;12.37;;
9968;SDS011;5025;48.890;9.278;2023-07-02T13:48:07;13.10;;;11.57;;
9968;SDS011;5025;48.890;9.278;2023-07-02T13:50:32;14.07;;;12.53;;
9968;SDS011;5025;48.890;9.278;2023-07-02T13:52:57;16.43;;;13.40;;
9968;SDS011;5025;48.890;9.278;2023-07-02T13:55:22;13.70;;;12.13;;
9968;SDS011;5025;48.890;9.278;2023-07-02T13:57:53;14.37;;;12.70;;
9968;SDS011;5025;48.890;9.278;2023-07-02T14:00:19;16.03;;;13.10;;
9968;SDS011;5025;48.890;9.278;2023-07-02T14:02:45;14.30;;;12.87;;
9968;SDS011;5025;48.890;9.278;2023-07-02T14:05:10;13.87;;;12.27;;
9968;SDS011;5025;48.890;9.278;2023-07-02T14:07:35;15.10;;;13.50;;
9968;SDS011;5025;48.890;9.278;2023-07-02T14:10:01;13.73;;;12.43;;
9968;SDS011;5025;48.890;9.278;2023-07-02T14:12:26;14.33;;;12.50;;
9968;SDS011;5025;48.890;9.278;2023-07-02T14:14:53;14.17;;;12.57;;
9968;SDS011;5025;48.890;9.278;2023-07-02T14:17:18;14.53;;;12.50;;
9968;SDS011;5025;48.890;9.278;2023-07-02T14:19:44;14.70;;;12.60;;
9968;SDS011;5025;48.890;9.278;2023-07-02T14:22:09;15.60;;;12.87;;
9968;SDS011;5025;48.890;9.278;2023-07-02T14:24:34;14.17;;;12.70;;
9968;SDS011;5025;48.890;9.278;2023-07-02T14:27:00;12.60;;;11.27;;
9968;SDS011;5025;48.890;9.278;2023-07-02T14:29:25;15.83;;;12.73;;
9968;SDS011;5025;48.890;9.278;2023-07-02T14:31:50;14.17;;;12.67;;
9968;SDS011;5025;48.890;9.278;2023-07-02T14:34:15;13.40;;;11.90;;
9968;SDS011;5025;48.890;9.278;2023-07-02T14:36:41;13.07;;;11.67;;
9968;SDS011;5025;48.890;9.278;2023-07-02T14:39:06;12.77;;;11.37;;
9968;SDS011;5025;48.890;9.278;2023-07-02T14:41:31;14.07;;;12.23;;
9968;SDS011;5025;48.890;9.278;2023-07-02T14:44:00;13.37;;;11.97;;
9968;SDS011;5025;48.890;9.278;2023-07-02T14:46:26;13.27;;;11.87;;
9968;SDS011;5025;48.890;9.278;2023-07-02T14:48:52;13.73;;;11.40;;
9968;SDS011;5025;48.890;9.278;2023-07-02T14:51:17;13.40;;;12.00;;
9968;SDS011;5025;48.890;9.278;2023-07-02T14:53:42;14.80;;;12.93;;
9968;SDS011;5025;48.890;9.278;2023-07-02T14:56:07;12.90;;;11.57;;